Time;durP1;ratioP1;P1;durP2;ratioP2;P2;SDS_P1;SDS_P2;PMS_P1;PMS_P2;Temp;Humidity;BMP_temperature;BMP_pressure;BME280_temperature;BME280_humidity;BME280_pressure;Samples;Min_cycle;Max_cycle;Signal;HPM_P1;HPM_P2
2023/01/12 00:01:28;;;;;;;20.37;7.30;;;;;;;;;;5024832;28;20188;-73
2023/01/12 00:03:55;;;;;;;15.53;4.47;;;;;;;;;;5027942;28;20282;-74
2023/01/12 00:06:21;;;;;;;18.30;4.17;;;;;;;;;;5034061;28;20280;-74
2023/01/12 00:08:48;;;;;;;13.07;4.60;;;;;;;;;;5023689;28;20187;-72
2023/01/12 00:11:15;;;;;;;9.10;2.80;;;;;;;;;;5018545;28;20191;-72
2023/01/12 00:13:41;;;;;;;19.07;5.83;;;;;;;;;;5020715;28;20190;-73
2023/01/12 00:18:58;;;;;;;8.90;2.50;;;;;;;;;;5027491;28;20688;-73
2023/01/12 00:21:26;;;;;;;11.03;2.80;;;;;;;;;;5021017;28;20209;-73
2023/01/12 00:23:52;;;;;;;9.63;2.87;;;;;;;;;;5028562;28;20178;-73
2023/01/12 00:26:18;;;;;;;11.67;3.87;;;;;;;;;;5009499;28;20213;-73
2023/01/12 00:28:44;;;;;;;11.60;3.47;;;;;;;;;;5020900;28;20208;-73
2023/01/12 00:31:11;;;;;;;14.87;4.00;;;;;;;;;;5011132;28;20185;-74
2023/01/12 00:33:37;;;;;;;10.87;3.53;;;;;;;;;;5010324;28;20211;-74
2023/01/12 00:36:04;;;;;;;9.97;2.77;;;;;;;;;;5028473;28;20210;-74
2023/01/12 00:38:31;;;;;;;11.83;4.03;;;;;;;;;;5027654;28;20217;-74
2023/01/12 00:40:57;;;;;;;11.33;2.60;;;;;;;;;;5026260;28;20179;-74
2023/01/12 00:46:08;;;;;;;15.93;4.60;;;;;;;;;;5026579;28;20360;-73
2023/01/12 00:48:34;;;;;;;8.50;2.90;;;;;;;;;;5028411;28;20174;-74
2023/01/12 00:51:04;;;;;;;8.97;2.70;;;;;;;;;;5028194;28;20613;-74
2023/01/12 00:53:30;;;;;;;10.73;2.50;;;;;;;;;;5028567;28;20182;-74
2023/01/12 00:56:03;;;;;;;10.17;2.67;;;;;;;;;;5026970;28;20749;-74
2023/01/12 00:58:29;;;;;;;7.77;2.20;;;;;;;;;;5026181;28;20193;-73
2023/01/12 01:01:06;;;;;;;16.60;3.20;;;;;;;;;;5006434;28;20195;-73
2023/01/12 01:03:32;;;;;;;12.57;2.37;;;;;;;;;;5020974;28;20240;-73
2023/01/12 01:06:05;;;;;;;12.63;2.53;;;;;;;;;;5025985;28;20564;-73
2023/01/12 01:08:32;;;;;;;13.40;2.63;;;;;;;;;;5028265;28;20771;-73
2023/01/12 01:11:02;;;;;;;13.90;2.40;;;;;;;;;;5025669;28;20194;-74
2023/01/12 01:13:28;;;;;;;7.90;2.60;;;;;;;;;;5041170;28;20183;-73
2023/01/12 01:15:54;;;;;;;13.10;2.50;;;;;;;;;;5024260;28;20206;-73
2023/01/12 01:18:21;;;;;;;10.27;2.60;;;;;;;;;;5024307;28;20178;-73
2023/01/12 01:20:47;;;;;;;13.63;2.40;;;;;;;;;;5017983;28;20206;-73
2023/01/12 01:23:14;;;;;;;12.57;2.40;;;;;;;;;;5027845;28;20166;-74
2023/01/12 01:25:40;;;;;;;13.30;2.90;;;;;;;;;;5027381;28;20210;-73
2023/01/12 01:28:06;;;;;;;11.57;3.03;;;;;;;;;;5026470;28;20175;-73
2023/01/12 01:30:33;;;;;;;8.70;2.30;;;;;;;;;;5024961;28;20588;-73
2023/01/12 01:32:59;;;;;;;14.20;3.93;;;;;;;;;;5022919;28;20216;-73
2023/01/12 01:35:25;;;;;;;8.83;2.57;;;;;;;;;;5026990;28;20265;-73
2023/01/12 01:37:51;;;;;;;12.13;2.43;;;;;;;;;;5026379;28;20284;-73
2023/01/12 01:40:17;;;;;;;12.40;2.40;;;;;;;;;;5027986;28;20568;-74
2023/01/12 01:42:43;;;;;;;13.07;2.77;;;;;;;;;;5026899;28;20208;-73
2023/01/12 01:45:11;;;;;;;13.57;2.73;;;;;;;;;;5026244;28;20210;-74
2023/01/12 01:47:42;;;;;;;14.07;3.10;;;;;;;;;;5025736;28;20186;-74
2023/01/12 01:50:15;;;;;;;14.87;2.63;;;;;;;;;;5024195;28;20641;-74
2023/01/12 01:52:43;;;;;;;12.60;2.57;;;;;;;;;;5026036;28;20213;-73
2023/01/12 01:55:19;;;;;;;10.57;2.60;;;;;;;;;;5027160;28;20316;-74
2023/01/12 01:57:48;;;;;;;13.13;2.60;;;;;;;;;;5017992;28;20170;-74
2023/01/12 02:00:15;;;;;;;9.90;2.20;;;;;;;;;;4995792;28;20178;-74
2023/01/12 02:02:42;;;;;;;13.20;2.60;;;;;;;;;;5024486;28;20650;-74
2023/01/12 02:05:08;;;;;;;13.43;2.50;;;;;;;;;;5022601;28;20265;-73
2023/01/12 02:07:34;;;;;;;9.93;3.67;;;;;;;;;;5021428;28;20815;-73
2023/01/12 02:10:01;;;;;;;13.40;3.17;;;;;;;;;;5025941;28;20186;-74
2023/01/12 02:18:09;;;;;;;14.30;2.80;;;;;;;;;;5024274;28;20183;-74
2023/01/12 02:20:47;;;;;;;9.17;2.40;;;;;;;;;;5010604;28;20182;-73
2023/01/12 02:23:32;;;;;;;13.90;2.73;;;;;;;;;;5002603;28;20189;-73
2023/01/12 02:26:01;;;;;;;12.60;2.70;;;;;;;;;;5017485;28;20907;-74
2023/01/12 02:28:36;;;;;;;10.33;2.60;;;;;;;;;;5008739;28;20201;-74
2023/01/12 02:31:25;;;;;;;7.43;2.03;;;;;;;;;;5025863;28;20486;-73
2023/01/12 02:34:02;;;;;;;9.00;2.10;;;;;;;;;;5024863;28;20416;-74
2023/01/12 02:36:31;;;;;;;8.57;2.27;;;;;;;;;;5026567;28;20301;-73
2023/01/12 02:39:06;;;;;;;12.80;2.43;;;;;;;;;;5023478;28;22053;-73
2023/01/12 02:44:26;;;;;;;8.87;2.57;;;;;;;;;;5023991;28;20604;-73
2023/01/12 02:46:53;;;;;;;14.40;2.60;;;;;;;;;;5028797;28;20273;-74
2023/01/12 02:49:21;;;;;;;9.23;2.43;;;;;;;;;;5030999;28;20690;-74
2023/01/12 02:51:56;;;;;;;8.83;2.10;;;;;;;;;;5029333;28;20190;-74
2023/01/12 02:54:23;;;;;;;8.90;2.47;;;;;;;;;;5028074;28;20174;-73
2023/01/12 02:56:51;;;;;;;10.03;2.60;;;;;;;;;;5028400;28;20178;-73
2023/01/12 02:59:27;;;;;;;13.60;2.80;;;;;;;;;;5025761;28;20178;-73
2023/01/12 03:01:57;;;;;;;14.47;2.80;;;;;;;;;;5030048;28;20178;-73
2023/01/12 03:04:23;;;;;;;11.03;2.73;;;;;;;;;;5027901;28;20186;-74
2023/01/12 03:06:55;;;;;;;9.47;2.13;;;;;;;;;;5025212;28;20274;-73
2023/01/12 03:09:24;;;;;;;16.13;3.03;;;;;;;;;;5028435;28;20192;-74
2023/01/12 03:11:53;;;;;;;10.77;2.57;;;;;;;;;;5030490;28;20190;-73
2023/01/12 03:14:21;;;;;;;10.20;2.40;;;;;;;;;;5029954;28;20182;-74
2023/01/12 03:16:48;;;;;;;13.30;2.80;;;;;;;;;;5019656;28;20201;-73
2023/01/12 03:19:18;;;;;;;7.00;2.40;;;;;;;;;;5020308;28;20175;-73
2023/01/12 03:21:47;;;;;;;10.90;2.20;;;;;;;;;;5006608;28;20182;-73
2023/01/12 03:24:15;;;;;;;11.30;2.50;;;;;;;;;;5026090;28;20225;-74
2023/01/12 03:26:43;;;;;;;8.67;2.30;;;;;;;;;;5027032;28;20195;-73
2023/01/12 03:29:13;;;;;;;9.90;2.67;;;;;;;;;;5022985;28;20681;-74
2023/01/12 03:31:40;;;;;;;9.67;2.37;;;;;;;;;;5019356;28;20189;-74
2023/01/12 03:34:06;;;;;;;11.73;2.40;;;;;;;;;;5023652;28;20191;-73
2023/01/12 03:36:32;;;;;;;12.57;2.40;;;;;;;;;;5023682;28;20214;-73
2023/01/12 03:39:07;;;;;;;8.93;2.37;;;;;;;;;;5025008;28;20269;-73
2023/01/12 03:41:37;;;;;;;7.50;2.03;;;;;;;;;;5022898;28;20269;-73
2023/01/12 03:44:04;;;;;;;12.17;2.40;;;;;;;;;;5027672;28;20187;-73
2023/01/12 03:46:36;;;;;;;8.77;2.53;;;;;;;;;;5022432;28;20256;-74
2023/01/12 03:49:05;;;;;;;14.70;2.40;;;;;;;;;;5026574;28;20658;-74
2023/01/12 03:51:38;;;;;;;9.87;2.20;;;;;;;;;;5027502;28;20711;-74
2023/01/12 03:54:06;;;;;;;9.80;2.60;;;;;;;;;;5011860;28;20197;-74
2023/01/12 03:56:34;;;;;;;8.67;2.53;;;;;;;;;;5026856;28;20226;-73
2023/01/12 03:59:01;;;;;;;9.97;2.20;;;;;;;;;;5028445;28;20171;-73
2023/01/12 04:01:27;;;;;;;9.70;2.17;;;;;;;;;;5028014;28;20265;-74
2023/01/12 04:03:54;;;;;;;11.23;2.03;;;;;;;;;;5027377;28;20181;-73
2023/01/12 04:06:20;;;;;;;9.40;2.33;;;;;;;;;;5026190;28;20207;-76
2023/01/12 04:08:46;;;;;;;11.53;2.60;;;;;;;;;;5028181;28;20732;-73
2023/01/12 04:13:57;;;;;;;10.80;2.90;;;;;;;;;;5029104;28;20178;-74
2023/01/12 04:16:23;;;;;;;10.80;2.33;;;;;;;;;;5027987;28;20224;-74
2023/01/12 04:18:49;;;;;;;10.70;2.90;;;;;;;;;;5021050;28;20240;-74
2023/01/12 04:24:00;;;;;;;9.00;2.20;;;;;;;;;;5028373;28;20186;-73
2023/01/12 04:26:26;;;;;;;10.23;2.30;;;;;;;;;;5028123;28;20215;-74
2023/01/12 04:28:52;;;;;;;8.90;2.23;;;;;;;;;;5029152;28;20197;-73
2023/01/12 04:31:18;;;;;;;10.00;2.40;;;;;;;;;;5027766;28;20198;-73
2023/01/12 04:33:45;;;;;;;8.07;2.23;;;;;;;;;;5025870;28;20599;-73
2023/01/12 04:36:11;;;;;;;13.57;2.67;;;;;;;;;;5026910;28;20818;-73
2023/01/12 04:38:38;;;;;;;9.73;2.23;;;;;;;;;;5025224;28;20211;-74
2023/01/12 04:41:05;;;;;;;13.47;2.83;;;;;;;;;;5008819;28;20277;-74
2023/01/12 04:43:31;;;;;;;10.33;2.50;;;;;;;;;;5027444;28;20190;-74
2023/01/12 04:45:57;;;;;;;11.13;2.77;;;;;;;;;;5023020;28;20433;-73
2023/01/12 04:48:24;;;;;;;12.03;2.43;;;;;;;;;;5026578;28;20879;-74
2023/01/12 04:50:50;;;;;;;8.47;2.13;;;;;;;;;;5028010;28;20173;-73
2023/01/12 04:53:16;;;;;;;6.87;1.97;;;;;;;;;;5026109;28;20182;-74
2023/01/12 04:55:43;;;;;;;9.40;2.23;;;;;;;;;;5026221;28;20595;-74
2023/01/12 04:58:09;;;;;;;11.53;2.67;;;;;;;;;;5026059;28;20197;-74
2023/01/12 05:00:36;;;;;;;10.27;2.60;;;;;;;;;;5025189;28;20182;-74
2023/01/12 05:03:02;;;;;;;7.90;2.10;;;;;;;;;;5026510;28;20186;-73
2023/01/12 05:05:29;;;;;;;13.13;2.67;;;;;;;;;;5023145;28;20297;-74
2023/01/12 05:10:43;;;;;;;8.87;2.30;;;;;;;;;;5017561;28;20788;-74
2023/01/12 05:13:09;;;;;;;11.27;2.10;;;;;;;;;;5024680;28;20185;-74
2023/01/12 05:15:35;;;;;;;9.83;2.37;;;;;;;;;;5023969;28;20268;-74
2023/01/12 05:18:01;;;;;;;7.57;2.17;;;;;;;;;;5018641;28;20178;-74
2023/01/12 05:20:28;;;;;;;11.40;2.60;;;;;;;;;;5016221;28;20194;-74
2023/01/12 05:22:54;;;;;;;8.67;2.20;;;;;;;;;;5021240;28;20210;-73
2023/01/12 05:25:20;;;;;;;9.97;2.10;;;;;;;;;;5021041;28;20239;-73
2023/01/12 05:27:46;;;;;;;9.67;2.40;;;;;;;;;;5020057;28;20183;-73
2023/01/12 05:30:13;;;;;;;10.70;2.60;;;;;;;;;;5023301;28;20190;-72
2023/01/12 05:32:42;;;;;;;12.77;2.70;;;;;;;;;;5022819;28;20189;-74
2023/01/12 05:35:09;;;;;;;9.63;1.90;;;;;;;;;;5018788;28;20221;-74
2023/01/12 05:37:35;;;;;;;9.33;2.20;;;;;;;;;;5028631;28;20202;-73
2023/01/12 05:40:01;;;;;;;11.70;2.30;;;;;;;;;;5021571;28;20294;-73
2023/01/12 05:45:12;;;;;;;12.13;2.40;;;;;;;;;;5015113;28;20729;-74
2023/01/12 05:47:38;;;;;;;15.03;2.60;;;;;;;;;;5022975;28;20183;-74
2023/01/12 05:50:05;;;;;;;8.43;2.38;;;;;;;;;;5021028;28;20944;-74
2023/01/12 05:52:31;;;;;;;9.07;2.00;;;;;;;;;;5024796;28;20214;-74
2023/01/12 05:54:57;;;;;;;10.60;2.13;;;;;;;;;;5020072;28;20215;-74
2023/01/12 05:57:23;;;;;;;7.17;2.00;;;;;;;;;;5022399;28;20221;-74
2023/01/12 05:59:49;;;;;;;10.00;2.47;;;;;;;;;;5021261;28;20309;-73
2023/01/12 06:02:16;;;;;;;10.47;2.17;;;;;;;;;;5020260;28;20182;-74
2023/01/12 06:04:43;;;;;;;11.13;2.30;;;;;;;;;;5017385;28;20211;-74
2023/01/12 06:07:13;;;;;;;8.67;2.40;;;;;;;;;;5025831;28;20178;-73
2023/01/12 06:09:39;;;;;;;9.50;2.37;;;;;;;;;;5020928;28;20182;-74
2023/01/12 06:14:51;;;;;;;11.60;2.53;;;;;;;;;;5025328;28;20225;-74
2023/01/12 06:17:17;;;;;;;9.30;2.30;;;;;;;;;;5021783;28;20913;-74
2023/01/12 06:19:43;;;;;;;10.97;2.53;;;;;;;;;;5017207;28;20317;-73
2023/01/12 06:22:09;;;;;;;8.93;2.23;;;;;;;;;;5023082;28;20232;-74
2023/01/12 06:24:35;;;;;;;11.17;2.10;;;;;;;;;;5015700;28;20202;-74
2023/01/12 06:27:02;;;;;;;12.73;2.20;;;;;;;;;;5022230;28;20190;-74
2023/01/12 06:29:28;;;;;;;7.83;2.17;;;;;;;;;;5024779;28;20183;-75
2023/01/12 06:31:54;;;;;;;14.53;2.50;;;;;;;;;;5022170;28;20179;-75
2023/01/12 06:34:20;;;;;;;12.30;2.60;;;;;;;;;;5026003;28;20814;-78
2023/01/12 06:36:46;;;;;;;10.70;2.33;;;;;;;;;;5016243;28;20284;-79
2023/01/12 06:39:13;;;;;;;11.23;2.27;;;;;;;;;;5005196;28;20301;-79
2023/01/12 06:44:24;;;;;;;6.90;2.20;;;;;;;;;;5022327;28;21087;-79
2023/01/12 06:46:50;;;;;;;9.13;2.43;;;;;;;;;;5007418;28;20198;-76
2023/01/12 06:49:16;;;;;;;8.53;2.60;;;;;;;;;;5028619;28;20485;-75
2023/01/12 06:51:43;;;;;;;7.03;1.83;;;;;;;;;;5024873;28;20179;-77
2023/01/12 06:54:09;;;;;;;8.20;2.20;;;;;;;;;;5012134;28;20211;-78
2023/01/12 06:56:36;;;;;;;12.13;2.40;;;;;;;;;;5028345;28;20582;-77
2023/01/12 06:59:02;;;;;;;10.97;2.57;;;;;;;;;;5012427;28;20186;-77
2023/01/12 07:01:28;;;;;;;10.70;2.57;;;;;;;;;;5025793;28;20179;-76
2023/01/12 07:03:54;;;;;;;9.25;2.42;;;;;;;;;;5025175;28;20891;-77
2023/01/12 07:06:20;;;;;;;12.37;2.30;;;;;;;;;;5021431;28;20233;-77
2023/01/12 07:08:46;;;;;;;9.80;2.60;;;;;;;;;;5021791;28;21029;-77
2023/01/12 07:11:14;;;;;;;10.85;2.55;;;;;;;;;;5022086;28;21316;-76
2023/01/12 07:13:40;;;;;;;10.27;2.58;;;;;;;;;;5023203;28;20426;-77
2023/01/12 07:16:06;;;;;;;9.33;2.37;;;;;;;;;;5022070;28;20222;-77
2023/01/12 07:18:32;;;;;;;10.70;2.50;;;;;;;;;;5023681;28;20642;-77
2023/01/12 07:20:59;;;;;;;10.50;2.38;;;;;;;;;;5023970;28;20417;-77
2023/01/12 07:23:25;;;;;;;13.97;3.27;;;;;;;;;;5035023;28;20175;-77
2023/01/12 07:25:51;;;;;;;9.27;2.87;;;;;;;;;;5024354;28;20211;-77
2023/01/12 07:28:17;;;;;;;8.87;2.33;;;;;;;;;;5025998;28;20186;-77
2023/01/12 07:30:43;;;;;;;8.83;2.53;;;;;;;;;;5025746;28;20230;-77
2023/01/12 07:33:11;;;;;;;10.03;2.57;;;;;;;;;;5011934;28;20194;-77
2023/01/12 07:35:37;;;;;;;10.90;2.60;;;;;;;;;;5029086;28;20288;-77
2023/01/12 07:38:04;;;;;;;7.87;2.10;;;;;;;;;;5028921;28;20171;-76
2023/01/12 07:40:31;;;;;;;8.63;2.13;;;;;;;;;;5030238;28;20175;-78
2023/01/12 07:42:58;;;;;;;8.10;2.20;;;;;;;;;;5029846;28;20753;-78
2023/01/12 07:45:24;;;;;;;10.10;2.30;;;;;;;;;;5031113;28;20583;-78
2023/01/12 07:47:53;;;;;;;7.33;1.93;;;;;;;;;;5044694;28;20208;-80
2023/01/12 07:50:20;;;;;;;8.43;2.10;;;;;;;;;;5032211;28;20186;-77
2023/01/12 07:52:46;;;;;;;8.33;2.30;;;;;;;;;;5012721;28;20565;-77
2023/01/12 07:55:15;;;;;;;11.83;2.50;;;;;;;;;;5029400;28;20686;-77
2023/01/12 07:57:42;;;;;;;8.07;2.63;;;;;;;;;;5029849;28;20537;-77
2023/01/12 08:00:08;;;;;;;10.80;2.43;;;;;;;;;;5029820;28;20194;-77
2023/01/12 08:02:35;;;;;;;9.67;2.30;;;;;;;;;;5029974;28;20717;-77
2023/01/12 08:05:01;;;;;;;8.73;2.17;;;;;;;;;;5030220;28;20712;-77
2023/01/12 08:07:27;;;;;;;9.50;2.80;;;;;;;;;;5029863;28;20634;-77
2023/01/12 08:09:53;;;;;;;7.90;2.20;;;;;;;;;;5030251;28;20175;-77
2023/01/12 08:12:19;;;;;;;16.67;2.40;;;;;;;;;;5030096;28;20171;-77
2023/01/12 08:14:45;;;;;;;6.87;1.97;;;;;;;;;;5029017;28;20202;-77
2023/01/12 08:17:16;;;;;;;9.50;1.93;;;;;;;;;;5029556;28;20232;-77
2023/01/12 08:19:47;;;;;;;9.20;2.40;;;;;;;;;;5028926;28;20166;-77
2023/01/12 08:22:16;;;;;;;9.70;2.20;;;;;;;;;;5028845;28;20228;-77
2023/01/12 08:24:45;;;;;;;13.27;2.47;;;;;;;;;;5028811;28;20732;-77
2023/01/12 08:27:11;;;;;;;8.20;1.90;;;;;;;;;;5027963;28;20188;-77
2023/01/12 08:29:42;;;;;;;7.73;2.20;;;;;;;;;;5029869;28;20191;-77
2023/01/12 08:32:11;;;;;;;10.50;2.13;;;;;;;;;;5028322;28;20171;-77
2023/01/12 08:34:39;;;;;;;7.67;2.10;;;;;;;;;;5028426;28;20300;-77
2023/01/12 08:37:06;;;;;;;8.60;2.50;;;;;;;;;;5027784;28;20274;-77
2023/01/12 08:39:34;;;;;;;9.60;2.57;;;;;;;;;;5028276;28;20250;-77
2023/01/12 08:42:00;;;;;;;9.30;2.30;;;;;;;;;;5029484;28;20228;-77
2023/01/12 08:44:35;;;;;;;7.43;2.57;;;;;;;;;;5027653;28;20189;-77
2023/01/12 08:47:02;;;;;;;11.63;1.93;;;;;;;;;;5027610;28;20615;-77
2023/01/12 08:49:29;;;;;;;10.07;2.10;;;;;;;;;;5012119;28;20182;-77
2023/01/12 08:51:55;;;;;;;8.30;2.13;;;;;;;;;;5028896;28;20178;-77
2023/01/12 08:54:22;;;;;;;10.00;2.23;;;;;;;;;;5034227;28;20174;-77
2023/01/12 08:56:49;;;;;;;9.00;2.17;;;;;;;;;;5049006;28;20408;-77
2023/01/12 08:59:18;;;;;;;5.70;1.77;;;;;;;;;;5047936;28;20170;-77
2023/01/12 09:01:44;;;;;;;6.90;1.97;;;;;;;;;;5047436;28;20661;-77
2023/01/12 09:04:10;;;;;;;11.07;3.60;;;;;;;;;;5049097;28;20216;-77
2023/01/12 09:06:37;;;;;;;9.07;2.23;;;;;;;;;;5048688;28;20293;-77
2023/01/12 09:09:05;;;;;;;4.33;1.53;;;;;;;;;;5036479;28;20192;-77
2023/01/12 09:11:31;;;;;;;7.00;2.00;;;;;;;;;;5027889;28;20186;-77
2023/01/12 09:13:58;;;;;;;7.03;2.30;;;;;;;;;;5027978;28;20709;-77
2023/01/12 09:16:25;;;;;;;6.93;1.80;;;;;;;;;;5027362;28;20213;-77
2023/01/12 09:18:51;;;;;;;8.77;1.70;;;;;;;;;;5029084;28;20252;-77
2023/01/12 09:21:19;;;;;;;6.87;1.80;;;;;;;;;;5011085;28;20273;-77
2023/01/12 09:23:46;;;;;;;5.87;1.90;;;;;;;;;;5028484;28;20179;-77
2023/01/12 09:26:13;;;;;;;7.30;2.17;;;;;;;;;;5029508;28;20214;-76
2023/01/12 09:28:40;;;;;;;7.70;2.10;;;;;;;;;;5029181;28;20578;-77
2023/01/12 09:31:08;;;;;;;6.37;2.20;;;;;;;;;;5027226;28;20189;-77
2023/01/12 09:33:35;;;;;;;7.90;2.10;;;;;;;;;;5027422;28;20328;-77
2023/01/12 09:36:02;;;;;;;7.90;2.13;;;;;;;;;;5026811;28;20221;-77
2023/01/12 09:38:28;;;;;;;8.07;2.07;;;;;;;;;;5027136;28;20189;-77
2023/01/12 09:40:56;;;;;;;8.43;2.40;;;;;;;;;;5027951;28;20166;-77
2023/01/12 09:49:00;;;;;;;6.00;2.50;;;;;;;;;;5011273;28;20305;-77
2023/01/12 09:51:35;;;;;;;6.00;2.17;;;;;;;;;;5026968;28;20560;-77
2023/01/12 09:54:03;;;;;;;7.93;2.27;;;;;;;;;;5027297;28;20194;-77
2023/01/12 09:56:38;;;;;;;6.77;2.27;;;;;;;;;;5027094;28;20210;-77
2023/01/12 09:59:23;;;;;;;9.13;2.30;;;;;;;;;;5031614;28;20182;-77
2023/01/12 10:01:50;;;;;;;8.37;2.30;;;;;;;;;;5027794;28;20178;-77
2023/01/12 10:04:17;;;;;;;8.40;2.03;;;;;;;;;;5027858;28;20610;-77
2023/01/12 10:06:43;;;;;;;5.77;2.23;;;;;;;;;;5026300;28;20206;-77
2023/01/12 10:09:12;;;;;;;5.90;1.80;;;;;;;;;;5028081;28;20223;-77
2023/01/12 10:11:45;;;;;;;10.07;2.37;;;;;;;;;;5026305;28;20178;-77
2023/01/12 10:14:29;;;;;;;10.73;2.43;;;;;;;;;;5027821;28;20665;-77
2023/01/12 10:17:14;;;;;;;7.37;2.00;;;;;;;;;;5027184;28;20182;-77
2023/01/12 10:19:40;;;;;;;5.50;1.90;;;;;;;;;;5026517;28;20204;-77
2023/01/12 10:22:14;;;;;;;8.97;1.93;;;;;;;;;;5027344;28;20190;-77
2023/01/12 10:24:41;;;;;;;6.87;2.23;;;;;;;;;;5028060;28;20213;-77
2023/01/12 10:27:10;;;;;;;6.17;2.10;;;;;;;;;;5027165;28;20180;-77
2023/01/12 10:29:36;;;;;;;7.87;2.33;;;;;;;;;;5027970;28;20167;-77
2023/01/12 10:32:02;;;;;;;8.80;1.97;;;;;;;;;;5026351;28;20266;-77
2023/01/12 10:34:47;;;;;;;10.40;2.30;;;;;;;;;;5010127;28;20197;-77
2023/01/12 10:37:13;;;;;;;10.20;2.23;;;;;;;;;;5025091;28;20217;-77
2023/01/12 10:39:41;;;;;;;7.60;2.07;;;;;;;;;;5027333;28;20183;-77
2023/01/12 10:43:17;;;;;;;7.17;2.10;;;;;;;;;;5027155;28;20175;-77
2023/01/12 10:45:13;;;;;;;9.07;2.13;;;;;;;;;;5027486;28;20214;-77
2023/01/12 10:47:39;;;;;;;10.50;2.23;;;;;;;;;;5027101;28;20173;-77
2023/01/12 10:50:21;;;;;;;6.47;1.80;;;;;;;;;;5026392;28;20170;-77
2023/01/12 10:52:49;;;;;;;6.23;2.20;;;;;;;;;;5026416;28;20553;-77
2023/01/12 10:55:19;;;;;;;9.87;2.63;;;;;;;;;;5027764;28;20220;-77
2023/01/12 10:57:46;;;;;;;6.43;1.90;;;;;;;;;;5026937;28;20167;-77
2023/01/12 11:00:20;;;;;;;9.93;1.73;;;;;;;;;;5027437;28;20202;-77
2023/01/12 11:02:47;;;;;;;9.37;2.10;;;;;;;;;;5031970;28;20194;-77
2023/01/12 11:05:29;;;;;;;7.40;1.80;;;;;;;;;;5038497;28;20207;-77
2023/01/12 11:07:55;;;;;;;8.63;2.20;;;;;;;;;;5031924;28;20190;-77
2023/01/12 11:10:26;;;;;;;6.07;1.73;;;;;;;;;;5031532;28;20206;-77
2023/01/12 11:12:57;;;;;;;5.20;2.10;;;;;;;;;;5031238;28;20742;-77
2023/01/12 11:15:24;;;;;;;6.23;2.40;;;;;;;;;;5029872;28;20260;-77
2023/01/12 11:17:51;;;;;;;6.67;2.10;;;;;;;;;;5029410;28;20202;-77
2023/01/12 11:20:26;;;;;;;5.77;2.00;;;;;;;;;;5029776;28;20186;-77
2023/01/12 11:22:55;;;;;;;4.60;1.90;;;;;;;;;;5030855;28;20262;-77
2023/01/12 11:25:22;;;;;;;8.40;2.00;;;;;;;;;;5031095;28;20748;-78
2023/01/12 11:27:54;;;;;;;12.90;1.97;;;;;;;;;;5028988;28;20794;-77
2023/01/12 11:30:26;;;;;;;5.20;1.70;;;;;;;;;;5030150;28;20248;-77
2023/01/12 11:33:07;;;;;;;7.90;1.93;;;;;;;;;;5031463;28;20221;-78
2023/01/12 11:35:34;;;;;;;5.87;2.10;;;;;;;;;;5021062;28;20305;-77
2023/01/12 11:38:02;;;;;;;6.53;2.10;;;;;;;;;;5031338;28;20265;-80
2023/01/12 11:40:29;;;;;;;5.50;2.10;;;;;;;;;;5017016;28;20244;-80
2023/01/12 11:45:56;;;;;;;6.50;2.27;;;;;;;;;;5015880;28;20222;-78
2023/01/12 11:48:30;;;;;;;5.83;2.20;;;;;;;;;;4979635;28;20226;-78
2023/01/12 11:50:57;;;;;;;7.00;1.93;;;;;;;;;;5011581;28;20245;-82
2023/01/12 11:53:24;;;;;;;6.03;1.90;;;;;;;;;;4997504;28;20183;-79
2023/01/12 11:56:00;;;;;;;7.77;2.10;;;;;;;;;;5014568;28;20265;-80
2023/01/12 11:58:38;;;;;;;6.67;2.37;;;;;;;;;;5020382;28;20289;-79
2023/01/12 12:01:15;;;;;;;8.87;2.60;;;;;;;;;;5015752;28;20340;-82
2023/01/12 12:04:02;;;;;;;4.40;1.93;;;;;;;;;;5017408;28;20190;-85
2023/01/12 12:06:39;;;;;;;6.30;2.30;;;;;;;;;;5032352;28;20214;-81
2023/01/12 12:09:08;;;;;;;6.40;2.17;;;;;;;;;;5035364;28;20174;-80
2023/01/12 12:11:38;;;;;;;5.30;1.70;;;;;;;;;;5016901;28;20202;-81
2023/01/12 12:14:27;;;;;;;4.90;1.53;;;;;;;;;;5016978;28;20650;-80
2023/01/12 12:17:02;;;;;;;5.27;1.60;;;;;;;;;;5031670;28;20592;-81
2023/01/12 12:19:33;;;;;;;4.93;1.63;;;;;;;;;;5015734;28;20255;-80
2023/01/12 12:21:59;;;;;;;2.57;1.23;;;;;;;;;;5031811;28;20194;-77
2023/01/12 12:24:37;;;;;;;9.03;2.00;;;;;;;;;;5035666;28;20544;-78
2023/01/12 12:27:15;;;;;;;7.93;2.10;;;;;;;;;;5013726;28;20186;-76
2023/01/12 12:30:01;;;;;;;4.97;1.80;;;;;;;;;;5031785;28;20696;-77
2023/01/12 12:32:45;;;;;;;6.03;1.90;;;;;;;;;;5037605;28;20189;-77
2023/01/12 12:35:14;;;;;;;4.73;1.97;;;;;;;;;;5021744;28;20693;-77
2023/01/12 12:37:51;;;;;;;4.90;2.00;;;;;;;;;;5028891;28;20660;-77
2023/01/12 12:46:40;;;;;;;9.17;2.10;;;;;;;;;;5020393;28;20629;-79
2023/01/12 12:49:11;;;;;;;8.00;1.80;;;;;;;;;;5029373;28;20214;-78
2023/01/12 12:51:37;;;;;;;6.50;1.87;;;;;;;;;;5016064;28;20189;-78
2023/01/12 12:54:06;;;;;;;5.63;2.30;;;;;;;;;;5027216;28;20179;-79
2023/01/12 12:56:34;;;;;;;5.37;1.87;;;;;;;;;;5025814;28;21111;-79
2023/01/12 12:59:00;;;;;;;5.03;1.63;;;;;;;;;;5026589;28;20182;-79
2023/01/12 13:01:26;;;;;;;7.73;1.90;;;;;;;;;;5027105;28;20183;-79
2023/01/12 13:03:59;;;;;;;7.43;2.60;;;;;;;;;;5028317;28;20512;-78
2023/01/12 13:06:27;;;;;;;4.43;2.10;;;;;;;;;;5026960;28;20642;-78
2023/01/12 13:08:54;;;;;;;4.37;1.97;;;;;;;;;;5028235;28;20178;-78
2023/01/12 13:11:41;;;;;;;4.90;1.70;;;;;;;;;;5027315;28;20182;-79
2023/01/12 13:14:17;;;;;;;4.53;1.50;;;;;;;;;;5028477;28;20231;-78
2023/01/12 13:16:48;;;;;;;4.60;1.70;;;;;;;;;;5026160;28;20224;-79
2023/01/12 13:19:31;;;;;;;7.07;1.70;;;;;;;;;;5018782;28;20850;-79
2023/01/12 13:21:58;;;;;;;3.13;1.70;;;;;;;;;;5028990;28;20178;-79
2023/01/12 13:24:26;;;;;;;3.87;1.80;;;;;;;;;;5027769;28;20179;-79
2023/01/12 13:26:54;;;;;;;3.80;1.40;;;;;;;;;;5028342;28;20760;-78
2023/01/12 13:29:26;;;;;;;4.13;1.60;;;;;;;;;;4993590;28;20277;-78
2023/01/12 13:31:59;;;;;;;4.53;1.37;;;;;;;;;;5026401;28;20276;-77
2023/01/12 13:34:31;;;;;;;2.60;1.40;;;;;;;;;;5027898;28;20862;-80
2023/01/12 13:37:20;;;;;;;3.47;1.77;;;;;;;;;;5030203;28;20679;-78
2023/01/12 13:40:10;;;;;;;4.67;1.80;;;;;;;;;;5008296;28;20792;-79
2023/01/12 13:45:22;;;;;;;4.43;1.90;;;;;;;;;;5026278;28;20309;-77
2023/01/12 13:47:49;;;;;;;3.67;1.43;;;;;;;;;;5025541;28;20175;-76
2023/01/12 13:50:20;;;;;;;2.30;1.20;;;;;;;;;;5025829;28;20261;-77
2023/01/12 13:52:55;;;;;;;2.87;1.17;;;;;;;;;;5025163;28;20190;-76
2023/01/12 13:55:24;;;;;;;3.87;1.20;;;;;;;;;;5025567;28;20202;-77
2023/01/12 13:58:26;;;;;;;3.33;1.30;;;;;;;;;;5026428;28;20244;-76
2023/01/12 14:00:56;;;;;;;2.47;1.00;;;;;;;;;;5008178;28;20196;-76
2023/01/12 14:03:34;;;;;;;4.67;1.20;;;;;;;;;;5023913;28;20225;-77
2023/01/12 14:06:08;;;;;;;3.20;1.30;;;;;;;;;;5026929;28;20883;-76
2023/01/12 14:08:40;;;;;;;3.13;1.20;;;;;;;;;;5025151;28;20185;-76
2023/01/12 14:11:14;;;;;;;3.93;1.30;;;;;;;;;;5020848;28;20197;-76
2023/01/12 14:13:53;;;;;;;3.70;1.20;;;;;;;;;;5025536;28;20181;-76
2023/01/12 14:19:27;;;;;;;2.60;1.50;;;;;;;;;;5026733;28;20658;-76
2023/01/12 14:22:02;;;;;;;6.27;1.57;;;;;;;;;;5003350;28;20677;-76
2023/01/12 14:24:28;;;;;;;1.87;0.93;;;;;;;;;;5028033;28;20839;-76
2023/01/12 14:26:54;;;;;;;2.27;1.30;;;;;;;;;;5008923;28;20281;-76
2023/01/12 14:29:21;;;;;;;3.43;1.67;;;;;;;;;;5000757;28;20209;-76
2023/01/12 14:31:51;;;;;;;3.63;1.30;;;;;;;;;;5024459;28;20210;-76
2023/01/12 14:34:36;;;;;;;3.27;1.30;;;;;;;;;;5025826;28;20272;-76
2023/01/12 14:37:04;;;;;;;5.20;2.10;;;;;;;;;;5019513;28;20194;-76
2023/01/12 14:39:35;;;;;;;2.23;1.50;;;;;;;;;;5026518;28;20189;-79
2023/01/12 14:47:35;;;;;;;5.57;1.30;;;;;;;;;;5029985;28;20186;-76
2023/01/12 14:50:14;;;;;;;4.00;1.30;;;;;;;;;;5030337;28;20182;-76
2023/01/12 14:52:41;;;;;;;1.63;1.00;;;;;;;;;;5031578;28;20174;-76
2023/01/12 14:55:14;;;;;;;4.60;1.70;;;;;;;;;;5030386;28;20234;-76
2023/01/12 14:57:40;;;;;;;4.37;1.70;;;;;;;;;;5031338;28;20258;-76
2023/01/12 15:00:07;;;;;;;2.03;1.20;;;;;;;;;;5031952;28;20175;-76
2023/01/12 15:02:36;;;;;;;2.63;1.27;;;;;;;;;;5032036;28;20189;-76
2023/01/12 15:05:17;;;;;;;3.27;1.47;;;;;;;;;;5030338;28;20249;-76
2023/01/12 15:07:54;;;;;;;4.33;1.30;;;;;;;;;;5030268;28;20193;-76
2023/01/12 15:10:20;;;;;;;2.13;1.60;;;;;;;;;;5030403;28;20174;-76
2023/01/12 15:12:50;;;;;;;1.40;1.20;;;;;;;;;;5030171;28;20236;-76
2023/01/12 15:15:16;;;;;;;2.87;1.10;;;;;;;;;;5030530;28;20271;-76
2023/01/12 15:25:59;;;;;;;3.23;1.10;;;;;;;;;;5030982;28;20783;-76
2023/01/12 15:28:27;;;;;;;12.37;10.70;;;;;;;;;;5032768;28;20182;-75
2023/01/12 15:30:53;;;;;;;4.97;3.67;;;;;;;;;;5029891;28;20194;-76
2023/01/12 15:33:20;;;;;;;4.30;1.70;;;;;;;;;;5031182;28;20642;-76
2023/01/12 15:35:46;;;;;;;2.47;1.20;;;;;;;;;;5030554;28;20459;-75
2023/01/12 15:38:13;;;;;;;3.10;2.03;;;;;;;;;;5032047;28;20191;-76
2023/01/12 15:40:39;;;;;;;7.43;1.73;;;;;;;;;;5030790;28;20246;-76
2023/01/12 15:43:12;;;;;;;2.50;1.77;;;;;;;;;;4998403;28;20185;-76
2023/01/12 15:45:39;;;;;;;2.97;1.40;;;;;;;;;;5032020;28;20281;-76
2023/01/12 15:48:05;;;;;;;3.13;1.67;;;;;;;;;;5032227;28;20194;-76
2023/01/12 15:50:33;;;;;;;4.70;1.90;;;;;;;;;;5031557;28;20179;-76
2023/01/12 15:52:59;;;;;;;3.80;1.77;;;;;;;;;;5031146;28;20183;-75
2023/01/12 15:55:26;;;;;;;3.80;1.87;;;;;;;;;;5031654;28;20218;-75